createdAt,value
2023-06-03T00:00:57.937Z,13.10
2023-06-03T00:03:46.252Z,13.10
2023-06-03T00:06:13.803Z,13.10
2023-06-03T00:08:42.901Z,13.08
2023-06-03T00:11:12.040Z,13.05
2023-06-03T00:13:39.440Z,13.02
2023-06-03T00:16:07.236Z,13.00
2023-06-03T00:18:34.225Z,12.98
2023-06-03T00:21:02.029Z,12.96
2023-06-03T00:23:28.925Z,12.94
2023-06-03T00:25:55.765Z,12.93
2023-06-03T00:28:22.530Z,12.90
2023-06-03T00:30:50.968Z,12.88
2023-06-03T00:33:18.166Z,12.86
2023-06-03T00:35:44.929Z,12.84
2023-06-03T00:38:11.842Z,12.81
2023-06-03T00:40:38.761Z,12.79
2023-06-03T00:43:05.494Z,12.77
2023-06-03T00:45:32.413Z,12.74
2023-06-03T00:47:59.808Z,12.71
2023-06-03T00:50:26.715Z,12.68
2023-06-03T00:52:54.098Z,12.65
2023-06-03T00:55:20.905Z,12.63
2023-06-03T00:57:49.191Z,12.64
2023-06-03T01:00:16.163Z,12.65
2023-06-03T01:02:44.676Z,12.66
2023-06-03T01:05:13.794Z,12.68
2023-06-03T01:08:25.184Z,12.70
2023-06-03T01:11:06.243Z,12.71
2023-06-03T01:13:43.630Z,12.70
2023-06-03T01:16:12.898Z,12.69
2023-06-03T01:18:43.127Z,12.70
2023-06-03T01:21:12.972Z,12.69
2023-06-03T01:23:44.677Z,12.69
2023-06-03T01:26:12.426Z,12.68
2023-06-03T01:28:39.891Z,12.67
2023-06-03T01:31:07.663Z,12.66
2023-06-03T01:33:36.407Z,12.64
2023-06-03T01:36:05.174Z,12.63
2023-06-03T01:38:33.301Z,12.62
2023-06-03T01:41:03.363Z,12.61
2023-06-03T01:43:31.025Z,12.60
2023-06-03T01:45:58.135Z,12.60
2023-06-03T01:48:25.242Z,12.61
2023-06-03T01:50:52.014Z,12.60
2023-06-03T01:53:19.904Z,12.58
2023-06-03T01:55:47.027Z,12.57
2023-06-03T01:58:14.491Z,12.54
2023-06-03T02:00:42.537Z,12.51
2023-06-03T02:03:09.440Z,12.49
2023-06-03T02:05:36.482Z,12.45
2023-06-03T02:08:03.367Z,12.42
2023-06-03T02:10:30.785Z,12.39
2023-06-03T02:12:57.882Z,12.36
2023-06-03T02:15:24.920Z,12.34
2023-06-03T02:17:51.738Z,12.32
2023-06-03T02:20:18.686Z,12.31
2023-06-03T02:22:45.971Z,12.31
2023-06-03T02:25:13.986Z,12.31
2023-06-03T02:27:40.701Z,12.30
2023-06-03T02:30:12.326Z,12.30
2023-06-03T02:32:39.182Z,12.30
2023-06-03T02:35:06.538Z,12.29
2023-06-03T02:37:33.798Z,12.29
2023-06-03T02:40:01.193Z,12.27
2023-06-03T02:42:28.636Z,12.26
2023-06-03T02:44:55.851Z,12.24
2023-06-03T02:47:23.274Z,12.24
2023-06-03T02:49:51.365Z,12.24
2023-06-03T02:52:18.364Z,12.24
2023-06-03T02:54:45.150Z,12.25
2023-06-03T02:57:11.942Z,12.26
2023-06-03T02:59:38.987Z,12.26
2023-06-03T03:02:06.179Z,12.27
2023-06-03T03:04:36.842Z,12.27
2023-06-03T03:07:09.993Z,12.26
2023-06-03T03:09:37.539Z,12.25
2023-06-03T03:12:05.760Z,12.23
2023-06-03T03:14:33.091Z,12.22
2023-06-03T03:17:00.244Z,12.20
2023-06-03T03:19:27.616Z,12.20
2023-06-03T03:21:54.407Z,12.20
2023-06-03T03:24:26.719Z,12.22
2023-06-03T03:26:54.348Z,12.24
2023-06-03T03:29:24.740Z,12.26
2023-06-03T03:31:58.020Z,12.28
2023-06-03T03:34:25.101Z,12.30
2023-06-03T03:36:52.307Z,12.33
2023-06-03T03:39:19.875Z,12.36
2023-06-03T03:41:51.216Z,12.40
2023-06-03T03:44:18.101Z,12.45
2023-06-03T03:47:04.053Z,12.50
2023-06-03T03:49:35.867Z,12.55
2023-06-03T03:52:06.200Z,12.59
2023-06-03T03:54:35.900Z,12.63
2023-06-03T03:57:09.965Z,12.68
2023-06-03T03:59:37.310Z,12.72
2023-06-03T04:02:04.394Z,12.78
2023-06-03T04:04:43.217Z,12.82
2023-06-03T04:07:15.093Z,12.88
2023-06-03T04:09:44.933Z,12.93
2023-06-03T04:12:25.897Z,12.99
2023-06-03T04:14:54.503Z,13.05
2023-06-03T04:17:25.924Z,13.12
2023-06-03T04:19:53.281Z,13.19
2023-06-03T04:22:25.065Z,13.26
2023-06-03T04:25:01.265Z,13.34
2023-06-03T04:27:34.097Z,13.43
2023-06-03T04:30:01.800Z,13.53
2023-06-03T04:32:29.943Z,13.70
2023-06-03T04:34:56.922Z,13.94
2023-06-03T04:37:24.156Z,14.18
2023-06-03T04:39:51.864Z,14.42
2023-06-03T04:42:18.745Z,14.66
2023-06-03T04:44:48.799Z,14.88
2023-06-03T04:47:17.898Z,15.08
2023-06-03T04:49:47.608Z,15.28
2023-06-03T04:52:14.551Z,15.48
2023-06-03T04:54:44.005Z,15.67
2023-06-03T04:57:12.319Z,15.86
2023-06-03T04:59:39.230Z,16.04
2023-06-03T05:02:09.105Z,16.21
2023-06-03T05:04:38.104Z,16.35
2023-06-03T05:07:05.229Z,16.45
2023-06-03T05:09:32.194Z,16.56
2023-06-03T05:11:59.293Z,16.72
2023-06-03T05:14:26.162Z,16.85
2023-06-03T05:16:53.386Z,16.97
2023-06-03T05:19:20.534Z,17.09
2023-06-03T05:21:47.696Z,17.20
2023-06-03T05:24:14.494Z,17.29
2023-06-03T05:26:41.637Z,17.43
2023-06-03T05:29:09.360Z,17.57
2023-06-03T05:31:36.355Z,17.74
2023-06-03T05:34:03.209Z,17.87
2023-06-03T05:36:30.576Z,17.98
2023-06-03T05:38:59.232Z,18.06
2023-06-03T05:41:26.179Z,18.16
2023-06-03T05:43:54.063Z,18.23
2023-06-03T05:46:21.461Z,18.29
2023-06-03T05:48:48.575Z,18.36
2023-06-03T05:51:15.756Z,18.51
2023-06-03T05:53:44.483Z,18.69
2023-06-03T05:56:12.886Z,18.86
2023-06-03T05:58:39.903Z,19.05
2023-06-03T06:01:06.925Z,19.27
2023-06-03T06:03:34.079Z,19.40
2023-06-03T06:06:01.661Z,19.49
2023-06-03T06:08:29.219Z,19.69
2023-06-03T06:10:56.360Z,19.95
2023-06-03T06:13:23.348Z,20.21
2023-06-03T06:16:01.597Z,20.49
2023-06-03T06:18:32.132Z,20.82
2023-06-03T06:21:00.143Z,21.04
2023-06-03T06:23:27.424Z,21.20
2023-06-03T06:25:55.751Z,21.39
2023-06-03T06:28:28.195Z,21.54
2023-06-03T06:31:05.786Z,21.69
2023-06-03T06:33:36.578Z,21.86
2023-06-03T06:36:27.750Z,22.00
2023-06-03T06:38:55.749Z,22.19
2023-06-03T06:41:22.749Z,22.35
2023-06-03T06:43:49.783Z,22.45
2023-06-03T06:46:17.759Z,22.55
2023-06-03T06:48:44.962Z,22.69
2023-06-03T06:51:12.605Z,22.88
2023-06-03T06:53:43.208Z,23.09
2023-06-03T06:56:13.166Z,23.30
2023-06-03T06:58:46.749Z,23.45
2023-06-03T07:01:15.245Z,23.63
2023-06-03T07:03:50.389Z,23.88
2023-06-03T07:06:17.928Z,24.18
2023-06-03T07:08:46.008Z,24.40
2023-06-03T07:11:15.138Z,24.41
2023-06-03T07:13:45.832Z,24.44
2023-06-03T07:16:16.143Z,24.48
2023-06-03T07:18:43.322Z,24.60
2023-06-03T07:21:10.605Z,24.72
2023-06-03T07:23:38.519Z,24.88
2023-06-03T07:26:05.811Z,25.06
2023-06-03T07:28:35.371Z,25.23
2023-06-03T07:31:09.613Z,25.38
2023-06-03T07:33:48.588Z,25.45
2023-06-03T07:36:21.385Z,25.50
2023-06-03T07:38:57.433Z,25.49
2023-06-03T07:41:37.094Z,25.55
2023-06-03T07:44:13.922Z,25.73
2023-06-03T07:46:45.592Z,25.97
2023-06-03T07:49:15.386Z,26.15
2023-06-03T07:51:49.650Z,26.46
2023-06-03T07:54:18.307Z,26.84
2023-06-03T07:56:46.448Z,27.09
2023-06-03T07:59:15.551Z,27.13
2023-06-03T08:01:43.562Z,27.21
2023-06-03T08:04:35.894Z,27.25
2023-06-03T08:07:03.116Z,27.38
2023-06-03T08:09:35.170Z,27.46
2023-06-03T08:12:05.839Z,27.62
2023-06-03T08:14:35.215Z,27.77
2023-06-03T08:17:06.804Z,27.80
2023-06-03T08:19:35.340Z,27.80
2023-06-03T08:22:02.246Z,27.95
2023-06-03T08:24:29.007Z,28.22
2023-06-03T08:26:56.172Z,28.49
2023-06-03T08:29:23.104Z,28.54
2023-06-03T08:31:49.944Z,28.59
2023-06-03T08:34:16.855Z,28.44
2023-06-03T08:36:43.839Z,28.19
2023-06-03T08:39:10.915Z,27.95
2023-06-03T08:41:42.009Z,27.73
2023-06-03T08:44:22.641Z,27.54
2023-06-03T08:46:59.523Z,27.33
2023-06-03T08:49:36.870Z,27.26
2023-06-03T08:52:08.636Z,27.18
2023-06-03T08:54:38.118Z,27.11
2023-06-03T08:57:12.352Z,26.89
2023-06-03T08:59:42.683Z,26.66
2023-06-03T09:02:13.243Z,26.47
2023-06-03T09:04:41.524Z,26.40
2023-06-03T09:07:11.556Z,26.32
2023-06-03T09:09:41.061Z,26.25
2023-06-03T09:12:09.105Z,26.01
2023-06-03T09:14:40.045Z,25.83
2023-06-03T09:17:07.313Z,25.76
2023-06-03T09:19:35.318Z,25.68
2023-06-03T09:22:04.289Z,25.63
2023-06-03T09:24:31.080Z,25.59
2023-06-03T09:26:58.629Z,25.53
2023-06-03T09:29:25.535Z,25.49
2023-06-03T09:31:52.901Z,25.41
2023-06-03T09:34:22.616Z,25.38
2023-06-03T09:36:50.143Z,25.37
2023-06-03T09:39:32.399Z,25.42
2023-06-03T09:41:59.161Z,25.54
2023-06-03T09:44:49.298Z,25.58
2023-06-03T09:47:16.954Z,25.70
2023-06-03T09:50:05.398Z,25.92
2023-06-03T09:52:36.560Z,26.07
2023-06-03T09:55:08.642Z,26.18
2023-06-03T09:57:36.897Z,26.33
2023-06-03T10:00:12.297Z,26.39
2023-06-03T10:02:40.648Z,26.38
2023-06-03T10:05:27.878Z,26.46
2023-06-03T10:07:55.895Z,26.55
2023-06-03T10:10:23.640Z,26.62
2023-06-03T10:12:51.700Z,26.75
2023-06-03T10:15:40.148Z,26.82
2023-06-03T10:18:08.035Z,26.73
2023-06-03T10:20:36.127Z,26.75
2023-06-03T10:23:05.386Z,27.03
2023-06-03T10:25:38.307Z,27.39
2023-06-03T10:28:05.954Z,27.61
2023-06-03T10:30:32.959Z,27.69
2023-06-03T10:33:03.863Z,27.74
2023-06-03T10:35:35.136Z,27.91
2023-06-03T10:38:04.334Z,28.19
2023-06-03T10:40:32.445Z,28.43
2023-06-03T10:43:02.932Z,28.74
2023-06-03T10:45:30.677Z,29.01
2023-06-03T10:48:04.153Z,29.23
2023-06-03T10:50:51.175Z,29.52
2023-06-03T10:53:28.237Z,29.78
2023-06-03T10:56:20.604Z,29.89
2023-06-03T10:58:58.971Z,30.02
2023-06-03T11:02:01.350Z,30.12
2023-06-03T11:04:30.784Z,30.31
2023-06-03T11:06:58.481Z,30.34
2023-06-03T11:09:40.046Z,30.30
2023-06-03T11:12:13.919Z,30.11
2023-06-03T11:14:43.222Z,30.00
2023-06-03T11:17:13.014Z,29.87
2023-06-03T11:19:46.047Z,29.82
2023-06-03T11:22:35.854Z,29.70
2023-06-03T11:25:03.200Z,29.39
2023-06-03T11:27:30.879Z,29.13
2023-06-03T11:30:03.088Z,29.08
2023-06-03T11:32:36.391Z,29.07
2023-06-03T11:35:03.901Z,29.29
2023-06-03T11:37:49.060Z,29.55
2023-06-03T11:40:20.977Z,29.80
2023-06-03T11:42:47.995Z,30.00
2023-06-03T11:45:30.154Z,29.78
2023-06-03T11:48:06.100Z,29.48
2023-06-03T11:50:54.112Z,29.35
2023-06-03T11:53:28.857Z,29.51
2023-06-03T11:56:09.975Z,29.82
2023-06-03T11:58:38.629Z,30.09
2023-06-03T12:01:08.679Z,30.17
2023-06-03T12:03:39.441Z,29.86
2023-06-03T12:06:06.870Z,29.43
2023-06-03T12:08:46.340Z,29.19
2023-06-03T12:11:31.187Z,29.12
2023-06-03T12:13:58.057Z,28.95
2023-06-03T12:16:33.991Z,28.86
2023-06-03T12:19:03.838Z,28.74
2023-06-03T12:21:40.043Z,28.54
2023-06-03T12:24:13.740Z,28.59
2023-06-03T12:26:41.779Z,28.73
2023-06-03T12:29:11.797Z,28.84
2023-06-03T12:31:39.114Z,28.98
2023-06-03T12:34:06.240Z,29.05
2023-06-03T12:36:46.661Z,29.02
2023-06-03T12:39:13.820Z,28.95
2023-06-03T12:41:51.470Z,28.60
2023-06-03T12:44:18.743Z,28.25
2023-06-03T12:47:02.083Z,28.06
2023-06-03T12:49:29.056Z,27.95
2023-06-03T12:52:21.355Z,27.90
2023-06-03T12:54:53.340Z,27.67
2023-06-03T12:57:20.817Z,27.52
2023-06-03T13:00:04.870Z,27.45
2023-06-03T13:02:31.953Z,27.38
2023-06-03T13:04:59.047Z,27.28
2023-06-03T13:07:26.239Z,27.18
2023-06-03T13:09:58.987Z,27.03
2023-06-03T13:12:26.302Z,26.94
2023-06-03T13:14:53.642Z,27.10
2023-06-03T13:17:23.481Z,27.33
2023-06-03T13:19:51.207Z,27.55
2023-06-03T13:25:22.754Z,28.07
2023-06-03T13:27:53.091Z,28.39
2023-06-03T13:30:20.961Z,28.71
2023-06-03T13:32:47.789Z,29.00
2023-06-03T13:35:14.818Z,29.18
2023-06-03T13:37:41.656Z,29.21
2023-06-03T13:40:09.131Z,29.31
2023-06-03T13:42:36.395Z,29.39
2023-06-03T13:45:06.887Z,29.42
2023-06-03T13:47:34.671Z,29.43
2023-06-03T13:50:02.372Z,29.47
2023-06-03T13:52:29.187Z,29.43
2023-06-03T13:54:56.003Z,29.26
2023-06-03T13:57:22.767Z,28.98
2023-06-03T13:59:49.527Z,28.73
2023-06-03T14:02:16.744Z,28.44
2023-06-03T14:04:43.829Z,28.23
2023-06-03T14:07:11.131Z,28.12
2023-06-03T14:09:38.098Z,28.03
2023-06-03T14:12:05.664Z,28.09
2023-06-03T14:14:32.493Z,28.23
2023-06-03T14:16:59.321Z,28.32
2023-06-03T14:19:26.173Z,28.43
2023-06-03T14:21:53.071Z,28.57
2023-06-03T14:24:20.089Z,28.66
2023-06-03T14:26:47.119Z,28.51
2023-06-03T14:29:14.157Z,28.34
2023-06-03T14:31:41.288Z,28.27
2023-06-03T14:34:08.346Z,28.35
2023-06-03T14:36:36.154Z,28.42
2023-06-03T14:39:03.074Z,28.31
2023-06-03T14:41:31.441Z,28.20
2023-06-03T14:43:58.732Z,28.11
2023-06-03T14:46:29.244Z,28.02
2023-06-03T14:48:56.507Z,27.88
2023-06-03T14:51:23.668Z,27.75
2023-06-03T14:53:50.966Z,27.54
2023-06-03T14:56:17.979Z,27.26
2023-06-03T14:58:44.988Z,27.08
2023-06-03T15:01:12.121Z,26.91
2023-06-03T15:03:39.064Z,26.81
2023-06-03T15:06:06.366Z,26.65
2023-06-03T15:08:33.566Z,26.55
2023-06-03T15:11:00.477Z,26.42
2023-06-03T15:13:27.335Z,26.34
2023-06-03T15:15:54.170Z,26.21
2023-06-03T15:18:21.085Z,26.05
2023-06-03T15:20:48.408Z,25.87
2023-06-03T15:23:15.869Z,25.71
2023-06-03T15:25:42.916Z,25.54
2023-06-03T15:28:10.336Z,25.31
2023-06-03T15:30:38.380Z,25.20
2023-06-03T15:33:06.597Z,25.21
2023-06-03T15:35:33.521Z,25.32
2023-06-03T15:38:00.613Z,25.42
2023-06-03T15:40:27.532Z,25.46
2023-06-03T15:42:58.018Z,25.49
2023-06-03T15:45:25.152Z,25.42
2023-06-03T15:47:52.133Z,25.28
2023-06-03T15:50:19.447Z,25.12
2023-06-03T15:52:46.284Z,25.02
2023-06-03T15:55:13.383Z,24.93
2023-06-03T15:57:40.528Z,24.86
2023-06-03T16:00:08.288Z,24.83
2023-06-03T16:02:36.211Z,24.79
2023-06-03T16:05:04.727Z,24.74
2023-06-03T16:07:32.968Z,24.69
2023-06-03T16:10:01.606Z,24.61
2023-06-03T16:12:30.202Z,24.50
2023-06-03T16:14:57.759Z,24.23
2023-06-03T16:17:29.301Z,23.90
2023-06-03T16:24:26.298Z,22.98
2023-06-03T16:27:53.042Z,22.41
2023-06-03T16:29:02.150Z,23.52
2023-06-03T16:30:20.948Z,22.05
2023-06-03T16:32:48.105Z,21.83
2023-06-03T16:35:19.564Z,21.65
2023-06-03T16:37:52.784Z,21.45
2023-06-03T16:50:29.362Z,20.85
2023-06-03T17:17:41.951Z,19.65
2023-06-03T17:25:05.905Z,19.44
2023-06-03T18:05:41.709Z,18.54
2023-06-03T18:08:12.146Z,18.50
2023-06-03T18:10:59.949Z,18.45
2023-06-03T18:18:25.510Z,18.32
2023-06-03T18:26:02.101Z,18.20
2023-06-03T18:28:29.208Z,18.14
2023-06-03T18:40:39.051Z,17.88
2023-06-03T18:46:57.832Z,17.74
2023-06-03T18:49:52.453Z,17.70
2023-06-03T18:53:20.096Z,17.63
2023-06-03T19:02:30.167Z,17.45
2023-06-03T19:05:30.834Z,17.38
2023-06-03T19:08:23.309Z,17.32
2023-06-03T19:10:55.517Z,17.29
2023-06-03T19:13:26.438Z,17.26
2023-06-03T19:15:58.508Z,17.23
2023-06-03T19:18:33.567Z,17.20
2023-06-03T19:21:02.898Z,17.17
2023-06-03T19:24:03.113Z,17.15
2023-06-03T19:26:42.384Z,17.11
2023-06-03T19:56:12.823Z,16.91
2023-06-03T20:08:52.791Z,16.84
2023-06-03T20:11:35.755Z,16.81
2023-06-03T20:14:24.591Z,16.79
2023-06-03T20:17:19.598Z,16.78
2023-06-03T20:29:11.831Z,16.72
2023-06-03T20:31:40.109Z,16.70
2023-06-03T20:34:07.171Z,16.68
2023-06-03T20:36:35.038Z,16.65
2023-06-03T20:39:02.237Z,16.61
2023-06-03T20:41:29.811Z,16.59
2023-06-03T20:43:56.924Z,16.56
2023-06-03T20:46:25.430Z,16.55
2023-06-03T20:48:52.489Z,16.54
2023-06-03T20:51:19.585Z,16.52
2023-06-03T20:53:46.899Z,16.49
2023-06-03T20:56:19.540Z,16.47
2023-06-03T20:58:49.361Z,16.46
2023-06-03T21:01:35.581Z,16.44
2023-06-03T21:04:03.523Z,16.42
2023-06-03T21:06:31.014Z,16.41
2023-06-03T21:08:58.219Z,16.37
2023-06-03T21:11:25.685Z,16.35
2023-06-03T21:13:54.588Z,16.34
2023-06-03T21:16:21.665Z,16.32
2023-06-03T21:18:48.757Z,16.29
2023-06-03T21:21:15.873Z,16.27
2023-06-03T21:23:43.039Z,16.25
2023-06-03T21:26:10.372Z,16.24
2023-06-03T21:28:37.393Z,16.22
2023-06-03T21:31:04.669Z,16.19
2023-06-03T21:33:31.821Z,16.19
2023-06-03T21:36:00.139Z,16.19
2023-06-03T21:38:27.567Z,16.16
2023-06-03T21:40:56.796Z,16.13
2023-06-03T21:43:23.953Z,16.09
2023-06-03T21:45:51.374Z,16.04
2023-06-03T21:48:18.471Z,15.98
2023-06-03T21:50:45.699Z,15.93
2023-06-03T21:53:12.766Z,15.90
2023-06-03T21:55:40.778Z,15.87
2023-06-03T21:58:08.175Z,15.84
2023-06-03T22:00:35.324Z,15.81
2023-06-03T22:03:02.819Z,15.79
2023-06-03T22:05:29.888Z,15.75
2023-06-03T22:07:56.885Z,15.71
2023-06-03T22:10:23.895Z,15.67
2023-06-03T22:12:51.166Z,15.63
2023-06-03T22:15:18.328Z,15.59
2023-06-03T22:17:45.654Z,15.55
2023-06-03T22:20:12.735Z,15.52
2023-06-03T22:22:40.488Z,15.48
2023-06-03T22:25:08.882Z,15.46
2023-06-03T22:27:35.961Z,15.43
2023-06-03T22:30:05.357Z,15.40
2023-06-03T22:32:32.497Z,15.37
2023-06-03T22:34:59.455Z,15.35
2023-06-03T22:37:26.440Z,15.33
2023-06-03T22:39:53.695Z,15.31
2023-06-03T22:42:20.824Z,15.30
2023-06-03T22:44:47.996Z,15.29
2023-06-03T22:47:15.122Z,15.26
2023-06-03T22:49:42.187Z,15.24
2023-06-03T22:52:09.321Z,15.20
2023-06-03T22:54:36.384Z,15.18
2023-06-03T22:57:03.615Z,15.15
2023-06-03T22:59:30.547Z,15.13
2023-06-03T23:01:58.692Z,15.10
2023-06-03T23:04:25.832Z,15.08
2023-06-03T23:06:52.754Z,15.06
2023-06-03T23:09:19.881Z,15.04
2023-06-03T23:11:47.771Z,15.03
2023-06-03T23:14:14.736Z,15.02
2023-06-03T23:16:42.056Z,14.99
2023-06-03T23:19:09.224Z,14.97
2023-06-03T23:21:36.301Z,14.94
2023-06-03T23:24:03.518Z,14.91
2023-06-03T23:26:30.683Z,14.90
2023-06-03T23:28:57.698Z,14.89
2023-06-03T23:31:25.490Z,14.87
2023-06-03T23:33:52.521Z,14.85
2023-06-03T23:36:21.205Z,14.85
2023-06-03T23:38:50.404Z,14.83
2023-06-03T23:41:17.465Z,14.82
2023-06-03T23:43:44.884Z,14.81
2023-06-03T23:46:12.253Z,14.80
2023-06-03T23:48:41.180Z,14.79
2023-06-03T23:51:10.352Z,14.78
2023-06-03T23:53:37.381Z,14.77
2023-06-03T23:56:04.537Z,14.77
2023-06-03T23:58:31.648Z,14.78
